• Join FlightAware (Why Join?)
  • Login
  • US Flag 
Gobble Gobble! 
02:47PM EST


 

Airport Tracker/Info


-or-


 

Live Flight TrackerFlight Track Log ✈ N825TD ✈ 25-Feb-2014 ✈ KEYW - KAPF

Flight Track Log - Related Links

Times and Time Zones

All times are in EST time to prevent confusion due to time zone crossing. See the N825TD flight status page for this flight to view local times or setup timezone preferences in your user account.

Time Position Orientation Groundspeed Altitude Reporting Facility
EST Latitude Longitude Course Direction KTS MPH feet Rate Location/Type
02:17PM 24.6211 -81.7883 13° North 106 122 3,000  Level Miami Center
02:18PM 24.6508 -81.7781 17° North 106 122 4,100 960 Climbing Miami Center
02:19PM 24.6844 -81.7681 15° North 119 137 5,000 1,020 Climbing Miami Center
02:20PM 24.7183 -81.7558 18° North 125 144 6,200 1,200 Climbing Miami Center
02:21PM 24.7497 -81.7251 13° North  Level FlightAware Approximate
02:21PM 24.7436 -81.7475 17° North 111 128 7,400  Level Miami Center
02:22PM 24.7824 -81.7169 13° North  Level FlightAware Approximate
02:22PM 24.7753 -81.7442 North 106 122 8,000  Level Miami Center
02:23PM 24.8147 -81.7481 355° North 114 131 8,000  Level Miami Center
02:24PM 24.8544 -81.7475 North 129 148 8,000 -60 Level Miami Center
02:25PM 24.8961 -81.7467 North 141 162 7,900 -60 Descending Miami Center
02:26PM 24.9378 -81.7508 355° North 141 162 7,900  Level Miami Center
02:27PM 24.9797 -81.7500 North 141 162 7,900  Level Miami Center
02:28PM 25.0214 -81.7494 North 141 162 7,900  Level Miami Center
02:29PM 25.0611 -81.7511 358° North 141 162 7,900  Level Miami Center
02:30PM 25.1028 -81.7506 North 141 162 7,900  Level Miami Center
02:31PM 25.1444 -81.7522 358° North 141 162 7,900  Level Miami Center
02:32PM 25.1842 -81.7536 358° North 141 162 7,900  Level Miami Center
02:33PM 25.2239 -81.7531 North 141 162 7,900  Level Miami Center
02:34PM 25.2656 -81.7547 358° North 141 162 7,900  Level Miami Center
02:35PM 25.3053 -81.7564 358° North 141 162 7,900  Level Miami Center
02:36PM 25.3447 -81.7578 358° North 141 162 7,900  Level Miami Center
02:37PM 25.3867 -81.7572 North 141 162 7,900 -180 Level Miami Center
02:38PM 25.4283 -81.7567 North 141 162 7,600 -420 Descending Miami Center
02:39PM 25.4722 -81.7539 North 141 162 7,100 -540 Descending Miami Center
02:40PM 25.5161 -81.7511 North 147 169 6,600 -540 Descending Miami Center
02:41PM 25.5622 -81.7506 North 154 177 6,100 -600 Descending Miami Center
02:42PM 25.6083 -81.7456 North 159 183 5,500 -600 Descending Miami Center
02:43PM 25.6564 -81.7428 North 159 183 4,900 -600 Descending Miami Center
02:44PM 25.6981 -81.7422 North 159 183 4,400 -420 Descending Miami Center
02:45PM 25.7439 -81.7464 355° North 159 183 4,100 -240 Descending Miami Center
02:46PM 25.7856 -81.7503 355° North 159 183 4,000 -180 Descending Miami Center
02:47PM 25.8314 -81.7569 353° North 159 183 3,800 -300 Descending Miami Center
02:48PM 25.8750 -81.7586 358° North 153 176 3,400 -420 Descending Miami Center
02:49PM 25.9208 -81.7650 353° North 159 183 3,000 -420 Descending Miami Center
02:50PM 25.9647 -81.7622 North 159 183 2,600 -360 Descending Miami Center
02:51PM 26.0086 -81.7642 358° North 159 183 2,300 -300 Descending Miami Center
02:53PM 26.0654 -81.7687 340° North  Level Estimated
03:00PM 26.1500 -81.7667 340° North  Level FlightAware Approximate
03:01PM 26.1524 -81.7756 340° North  Level Estimated
03:02PM 26.1524 -81.7756 340° North  Level Estimated
03:03PM 26.1524 -81.7756 340° North  Level Estimated
03:04PM 26.1524 -81.7756 340° North  Level Estimated